sensor_id;sensor_type;location;lat;lon;timestamp;temperature;humidity
29003;DHT22;16102;57.138;-2.118;2023-03-14T00:01:35;2.20;1.00
29003;DHT22;16102;57.138;-2.118;2023-03-14T00:04:04;2.20;1.00
29003;DHT22;16102;57.138;-2.118;2023-03-14T00:06:31;2.10;1.00
29003;DHT22;16102;57.138;-2.118;2023-03-14T00:08:58;2.10;1.00
29003;DHT22;16102;57.138;-2.118;2023-03-14T00:11:26;2.10;1.00
29003;DHT22;16102;57.138;-2.118;2023-03-14T00:13:53;2.10;1.00
29003;DHT22;16102;57.138;-2.118;2023-03-14T00:16:20;2.10;1.00
29003;DHT22;16102;57.138;-2.118;2023-03-14T00:18:48;2.00;1.00
29003;DHT22;16102;57.138;-2.118;2023-03-14T00:21:15;2.00;1.00
29003;DHT22;16102;57.138;-2.118;2023-03-14T00:23:43;2.00;1.00
29003;DHT22;16102;57.138;-2.118;2023-03-14T00:26:15;2.00;1.00
29003;DHT22;16102;57.138;-2.118;2023-03-14T00:28:43;2.00;1.00
29003;DHT22;16102;57.138;-2.118;2023-03-14T00:31:14;2.00;1.00
29003;DHT22;16102;57.138;-2.118;2023-03-14T00:33:42;1.90;1.00
29003;DHT22;16102;57.138;-2.118;2023-03-14T00:36:14;1.90;1.00
29003;DHT22;16102;57.138;-2.118;2023-03-14T00:38:43;1.90;1.00
29003;DHT22;16102;57.138;-2.118;2023-03-14T00:41:12;1.80;1.00
29003;DHT22;16102;57.138;-2.118;2023-03-14T00:43:40;1.80;1.00
29003;DHT22;16102;57.138;-2.118;2023-03-14T00:46:07;1.80;1.00
29003;DHT22;16102;57.138;-2.118;2023-03-14T00:48:35;1.70;1.00
29003;DHT22;16102;57.138;-2.118;2023-03-14T00:51:04;1.70;1.00
29003;DHT22;16102;57.138;-2.118;2023-03-14T00:53:32;1.80;1.00
29003;DHT22;16102;57.138;-2.118;2023-03-14T00:56:06;1.70;1.00
29003;DHT22;16102;57.138;-2.118;2023-03-14T00:58:33;1.70;1.00
29003;DHT22;16102;57.138;-2.118;2023-03-14T01:01:14;1.70;1.00
29003;DHT22;16102;57.138;-2.118;2023-03-14T01:03:41;1.70;1.00
29003;DHT22;16102;57.138;-2.118;2023-03-14T01:06:13;1.60;1.00
29003;DHT22;16102;57.138;-2.118;2023-03-14T01:08:41;1.60;1.00
29003;DHT22;16102;57.138;-2.118;2023-03-14T01:11:15;1.60;1.00
29003;DHT22;16102;57.138;-2.118;2023-03-14T01:13:42;1.60;1.00
29003;DHT22;16102;57.138;-2.118;2023-03-14T01:16:11;1.60;1.00
29003;DHT22;16102;57.138;-2.118;2023-03-14T01:18:39;1.60;1.00
29003;DHT22;16102;57.138;-2.118;2023-03-14T01:21:38;1.50;1.00
29003;DHT22;16102;57.138;-2.118;2023-03-14T01:24:06;1.50;1.00
29003;DHT22;16102;57.138;-2.118;2023-03-14T01:26:34;1.50;1.00
29003;DHT22;16102;57.138;-2.118;2023-03-14T01:29:02;1.40;1.00
29003;DHT22;16102;57.138;-2.118;2023-03-14T01:31:30;1.40;1.00
29003;DHT22;16102;57.138;-2.118;2023-03-14T01:33:57;1.40;1.00
29003;DHT22;16102;57.138;-2.118;2023-03-14T01:36:24;1.40;1.00
29003;DHT22;16102;57.138;-2.118;2023-03-14T01:38:51;1.40;1.00
29003;DHT22;16102;57.138;-2.118;2023-03-14T01:41:21;1.30;1.00
29003;DHT22;16102;57.138;-2.118;2023-03-14T01:43:49;1.20;1.00
29003;DHT22;16102;57.138;-2.118;2023-03-14T01:51:33;1.20;1.00
29003;DHT22;16102;57.138;-2.118;2023-03-14T01:54:10;1.20;1.00
29003;DHT22;16102;57.138;-2.118;2023-03-14T01:56:39;1.20;1.00
29003;DHT22;16102;57.138;-2.118;2023-03-14T01:59:08;1.10;1.00
29003;DHT22;16102;57.138;-2.118;2023-03-14T02:01:38;1.10;1.00
29003;DHT22;16102;57.138;-2.118;2023-03-14T02:04:09;1.10;1.00
29003;DHT22;16102;57.138;-2.118;2023-03-14T02:06:49;1.10;1.00
29003;DHT22;16102;57.138;-2.118;2023-03-14T02:09:17;1.10;1.00
29003;DHT22;16102;57.138;-2.118;2023-03-14T02:11:45;1.10;1.00
29003;DHT22;16102;57.138;-2.118;2023-03-14T02:14:21;1.00;1.00
29003;DHT22;16102;57.138;-2.118;2023-03-14T02:16:51;1.10;1.00
29003;DHT22;16102;57.138;-2.118;2023-03-14T02:19:23;1.00;1.00
29003;DHT22;16102;57.138;-2.118;2023-03-14T02:22:08;1.00;1.00
29003;DHT22;16102;57.138;-2.118;2023-03-14T02:27:13;1.00;1.00
29003;DHT22;16102;57.138;-2.118;2023-03-14T02:29:57;1.00;1.00
29003;DHT22;16102;57.138;-2.118;2023-03-14T02:32:27;1.00;1.00
29003;DHT22;16102;57.138;-2.118;2023-03-14T02:34:58;1.00;1.00
29003;DHT22;16102;57.138;-2.118;2023-03-14T02:37:33;0.90;1.00
29003;DHT22;16102;57.138;-2.118;2023-03-14T02:40:01;0.90;1.00
29003;DHT22;16102;57.138;-2.118;2023-03-14T02:42:28;0.90;1.00
29003;DHT22;16102;57.138;-2.118;2023-03-14T02:47:37;0.90;1.00
29003;DHT22;16102;57.138;-2.118;2023-03-14T02:50:10;0.90;1.00
29003;DHT22;16102;57.138;-2.118;2023-03-14T02:52:42;0.80;1.00
29003;DHT22;16102;57.138;-2.118;2023-03-14T02:55:09;0.80;1.00
29003;DHT22;16102;57.138;-2.118;2023-03-14T02:57:36;0.70;1.00
29003;DHT22;16102;57.138;-2.118;2023-03-14T03:00:04;0.70;1.00
29003;DHT22;16102;57.138;-2.118;2023-03-14T03:02:32;0.70;1.00
29003;DHT22;16102;57.138;-2.118;2023-03-14T03:04:59;0.70;1.00
29003;DHT22;16102;57.138;-2.118;2023-03-14T03:07:26;0.70;1.00
29003;DHT22;16102;57.138;-2.118;2023-03-14T03:09:53;0.70;1.00
29003;DHT22;16102;57.138;-2.118;2023-03-14T03:12:20;0.70;1.00
29003;DHT22;16102;57.138;-2.118;2023-03-14T03:14:47;0.70;1.00
29003;DHT22;16102;57.138;-2.118;2023-03-14T03:17:14;0.70;1.00
29003;DHT22;16102;57.138;-2.118;2023-03-14T03:19:41;0.70;1.00
29003;DHT22;16102;57.138;-2.118;2023-03-14T03:22:08;0.70;1.00
29003;DHT22;16102;57.138;-2.118;2023-03-14T03:24:35;0.70;1.00
29003;DHT22;16102;57.138;-2.118;2023-03-14T03:27:02;0.60;1.00
29003;DHT22;16102;57.138;-2.118;2023-03-14T03:29:29;0.60;1.00
29003;DHT22;16102;57.138;-2.118;2023-03-14T03:31:56;0.60;1.00
29003;DHT22;16102;57.138;-2.118;2023-03-14T03:34:23;0.60;1.00
29003;DHT22;16102;57.138;-2.118;2023-03-14T03:36:50;0.60;1.00
29003;DHT22;16102;57.138;-2.118;2023-03-14T03:39:16;0.50;1.00
29003;DHT22;16102;57.138;-2.118;2023-03-14T03:41:43;0.50;1.00
29003;DHT22;16102;57.138;-2.118;2023-03-14T03:44:10;0.50;1.00
29003;DHT22;16102;57.138;-2.118;2023-03-14T03:46:39;0.50;1.00
29003;DHT22;16102;57.138;-2.118;2023-03-14T03:49:06;0.50;1.00
29003;DHT22;16102;57.138;-2.118;2023-03-14T03:51:33;0.50;1.00
29003;DHT22;16102;57.138;-2.118;2023-03-14T03:54:00;0.50;1.00
29003;DHT22;16102;57.138;-2.118;2023-03-14T03:56:27;0.50;1.00
29003;DHT22;16102;57.138;-2.118;2023-03-14T03:58:54;0.40;1.00
29003;DHT22;16102;57.138;-2.118;2023-03-14T04:01:20;0.40;1.00
29003;DHT22;16102;57.138;-2.118;2023-03-14T04:03:48;0.40;1.00
29003;DHT22;16102;57.138;-2.118;2023-03-14T04:06:15;0.40;1.00
29003;DHT22;16102;57.138;-2.118;2023-03-14T04:08:42;0.30;1.00
29003;DHT22;16102;57.138;-2.118;2023-03-14T04:11:10;0.30;1.00
29003;DHT22;16102;57.138;-2.118;2023-03-14T04:13:37;0.30;1.00
29003;DHT22;16102;57.138;-2.118;2023-03-14T04:16:12;0.20;1.00
29003;DHT22;16102;57.138;-2.118;2023-03-14T04:18:41;0.20;1.00
29003;DHT22;16102;57.138;-2.118;2023-03-14T04:21:08;0.20;1.00
29003;DHT22;16102;57.138;-2.118;2023-03-14T04:23:35;0.20;1.00
29003;DHT22;16102;57.138;-2.118;2023-03-14T04:26:03;0.30;1.00
29003;DHT22;16102;57.138;-2.118;2023-03-14T04:28:31;0.20;1.00
29003;DHT22;16102;57.138;-2.118;2023-03-14T04:30:58;0.20;1.00
29003;DHT22;16102;57.138;-2.118;2023-03-14T04:33:25;0.20;1.00
29003;DHT22;16102;57.138;-2.118;2023-03-14T04:35:54;0.20;1.00
29003;DHT22;16102;57.138;-2.118;2023-03-14T04:38:21;0.20;1.00
29003;DHT22;16102;57.138;-2.118;2023-03-14T04:40:48;0.20;1.00
29003;DHT22;16102;57.138;-2.118;2023-03-14T04:43:15;0.30;1.00
29003;DHT22;16102;57.138;-2.118;2023-03-14T04:45:43;0.20;1.00
29003;DHT22;16102;57.138;-2.118;2023-03-14T04:48:10;0.20;1.00
29003;DHT22;16102;57.138;-2.118;2023-03-14T04:50:37;0.10;1.00
29003;DHT22;16102;57.138;-2.118;2023-03-14T04:53:05;0.10;1.00
29003;DHT22;16102;57.138;-2.118;2023-03-14T04:55:33;0.20;1.00
29003;DHT22;16102;57.138;-2.118;2023-03-14T04:58:00;0.10;1.00
29003;DHT22;16102;57.138;-2.118;2023-03-14T05:00:26;0.20;1.00
29003;DHT22;16102;57.138;-2.118;2023-03-14T05:02:53;0.20;1.00
29003;DHT22;16102;57.138;-2.118;2023-03-14T05:05:21;0.20;1.00
29003;DHT22;16102;57.138;-2.118;2023-03-14T05:07:48;0.10;1.00
29003;DHT22;16102;57.138;-2.118;2023-03-14T05:10:15;0.10;1.00
29003;DHT22;16102;57.138;-2.118;2023-03-14T05:12:42;0.10;1.00
29003;DHT22;16102;57.138;-2.118;2023-03-14T05:15:09;0.10;1.00
29003;DHT22;16102;57.138;-2.118;2023-03-14T05:17:36;0.00;1.00
29003;DHT22;16102;57.138;-2.118;2023-03-14T05:20:04;0.00;1.00
29003;DHT22;16102;57.138;-2.118;2023-03-14T05:22:41;0.00;1.00
29003;DHT22;16102;57.138;-2.118;2023-03-14T05:25:09;0.00;1.00
29003;DHT22;16102;57.138;-2.118;2023-03-14T05:27:36;-0.10;1.00
29003;DHT22;16102;57.138;-2.118;2023-03-14T05:30:04;-0.10;1.00
29003;DHT22;16102;57.138;-2.118;2023-03-14T05:32:32;-0.10;1.00
29003;DHT22;16102;57.138;-2.118;2023-03-14T05:34:59;-0.10;1.00
29003;DHT22;16102;57.138;-2.118;2023-03-14T05:37:26;-0.10;1.00
29003;DHT22;16102;57.138;-2.118;2023-03-14T05:39:53;-0.10;1.00
29003;DHT22;16102;57.138;-2.118;2023-03-14T05:42:20;-0.10;1.00
29003;DHT22;16102;57.138;-2.118;2023-03-14T05:44:47;-0.20;1.00
29003;DHT22;16102;57.138;-2.118;2023-03-14T05:47:14;-0.20;1.00
29003;DHT22;16102;57.138;-2.118;2023-03-14T05:49:41;-0.20;1.00
29003;DHT22;16102;57.138;-2.118;2023-03-14T05:52:08;-0.20;1.00
29003;DHT22;16102;57.138;-2.118;2023-03-14T05:54:35;-0.30;1.00
29003;DHT22;16102;57.138;-2.118;2023-03-14T05:57:02;-0.30;1.00
29003;DHT22;16102;57.138;-2.118;2023-03-14T05:59:29;-0.30;1.00
29003;DHT22;16102;57.138;-2.118;2023-03-14T06:01:56;-0.30;1.00
29003;DHT22;16102;57.138;-2.118;2023-03-14T06:04:24;-0.40;1.00
29003;DHT22;16102;57.138;-2.118;2023-03-14T06:06:51;-0.40;1.00
29003;DHT22;16102;57.138;-2.118;2023-03-14T06:09:18;-0.40;1.00
29003;DHT22;16102;57.138;-2.118;2023-03-14T06:11:46;-0.50;1.00
29003;DHT22;16102;57.138;-2.118;2023-03-14T06:14:13;-0.50;1.00
29003;DHT22;16102;57.138;-2.118;2023-03-14T06:16:40;-0.50;1.00
29003;DHT22;16102;57.138;-2.118;2023-03-14T06:19:07;-0.50;1.00
29003;DHT22;16102;57.138;-2.118;2023-03-14T06:21:34;-0.50;1.00
29003;DHT22;16102;57.138;-2.118;2023-03-14T06:24:01;-0.40;1.00
29003;DHT22;16102;57.138;-2.118;2023-03-14T06:26:28;-0.30;1.00
29003;DHT22;16102;57.138;-2.118;2023-03-14T06:28:55;-0.30;1.00
29003;DHT22;16102;57.138;-2.118;2023-03-14T06:31:22;-0.20;1.00
29003;DHT22;16102;57.138;-2.118;2023-03-14T06:33:49;-0.20;1.00
29003;DHT22;16102;57.138;-2.118;2023-03-14T06:36:16;-0.20;1.00
29003;DHT22;16102;57.138;-2.118;2023-03-14T06:38:43;-0.20;1.00
29003;DHT22;16102;57.138;-2.118;2023-03-14T06:41:10;-0.30;1.00
29003;DHT22;16102;57.138;-2.118;2023-03-14T06:43:37;-0.30;1.00
29003;DHT22;16102;57.138;-2.118;2023-03-14T06:46:04;-0.30;1.00
29003;DHT22;16102;57.138;-2.118;2023-03-14T06:48:31;-0.30;1.00
29003;DHT22;16102;57.138;-2.118;2023-03-14T06:50:58;-0.30;1.00
29003;DHT22;16102;57.138;-2.118;2023-03-14T06:53:25;-0.20;1.00
29003;DHT22;16102;57.138;-2.118;2023-03-14T06:55:52;-0.20;1.00
29003;DHT22;16102;57.138;-2.118;2023-03-14T06:58:20;-0.10;1.00
29003;DHT22;16102;57.138;-2.118;2023-03-14T07:00:47;-0.10;1.00
29003;DHT22;16102;57.138;-2.118;2023-03-14T07:03:15;0.00;1.00
29003;DHT22;16102;57.138;-2.118;2023-03-14T07:05:42;0.00;1.00
29003;DHT22;16102;57.138;-2.118;2023-03-14T07:08:09;0.10;1.00
29003;DHT22;16102;57.138;-2.118;2023-03-14T07:10:36;0.00;1.00
29003;DHT22;16102;57.138;-2.118;2023-03-14T07:13:04;0.10;1.00
29003;DHT22;16102;57.138;-2.118;2023-03-14T07:15:30;0.10;1.00
29003;DHT22;16102;57.138;-2.118;2023-03-14T07:17:57;0.10;1.00
29003;DHT22;16102;57.138;-2.118;2023-03-14T07:20:24;0.10;1.00
29003;DHT22;16102;57.138;-2.118;2023-03-14T07:22:51;0.20;1.00
29003;DHT22;16102;57.138;-2.118;2023-03-14T07:25:18;0.20;1.00
29003;DHT22;16102;57.138;-2.118;2023-03-14T07:27:46;0.30;1.00
29003;DHT22;16102;57.138;-2.118;2023-03-14T07:30:17;0.30;1.00
29003;DHT22;16102;57.138;-2.118;2023-03-14T07:32:44;0.40;1.00
29003;DHT22;16102;57.138;-2.118;2023-03-14T07:35:11;0.40;1.00
29003;DHT22;16102;57.138;-2.118;2023-03-14T07:37:38;0.40;1.00
29003;DHT22;16102;57.138;-2.118;2023-03-14T07:40:05;0.40;1.00
29003;DHT22;16102;57.138;-2.118;2023-03-14T07:42:33;0.40;1.00
29003;DHT22;16102;57.138;-2.118;2023-03-14T07:45:00;0.50;1.00
29003;DHT22;16102;57.138;-2.118;2023-03-14T07:47:27;0.50;1.00
29003;DHT22;16102;57.138;-2.118;2023-03-14T07:49:54;0.60;1.00
29003;DHT22;16102;57.138;-2.118;2023-03-14T07:52:21;0.70;1.00
29003;DHT22;16102;57.138;-2.118;2023-03-14T07:54:48;0.70;1.00
29003;DHT22;16102;57.138;-2.118;2023-03-14T07:57:15;0.80;1.00
29003;DHT22;16102;57.138;-2.118;2023-03-14T07:59:43;0.80;1.00
29003;DHT22;16102;57.138;-2.118;2023-03-14T08:02:11;0.90;1.00
29003;DHT22;16102;57.138;-2.118;2023-03-14T08:04:39;0.90;1.00
29003;DHT22;16102;57.138;-2.118;2023-03-14T08:07:06;1.00;1.00
29003;DHT22;16102;57.138;-2.118;2023-03-14T08:09:34;1.10;1.00
29003;DHT22;16102;57.138;-2.118;2023-03-14T08:12:01;1.10;1.00
29003;DHT22;16102;57.138;-2.118;2023-03-14T08:14:28;1.20;1.00
29003;DHT22;16102;57.138;-2.118;2023-03-14T08:16:56;1.20;1.00
29003;DHT22;16102;57.138;-2.118;2023-03-14T08:19:23;1.20;1.00
29003;DHT22;16102;57.138;-2.118;2023-03-14T08:21:50;1.30;1.00
29003;DHT22;16102;57.138;-2.118;2023-03-14T08:24:17;1.30;1.00
29003;DHT22;16102;57.138;-2.118;2023-03-14T08:26:44;1.40;1.00
29003;DHT22;16102;57.138;-2.118;2023-03-14T08:29:11;1.40;1.00
29003;DHT22;16102;57.138;-2.118;2023-03-14T08:31:39;1.40;1.00
29003;DHT22;16102;57.138;-2.118;2023-03-14T08:34:06;1.50;1.00
29003;DHT22;16102;57.138;-2.118;2023-03-14T08:36:33;1.50;1.00
29003;DHT22;16102;57.138;-2.118;2023-03-14T08:39:00;1.50;1.00
29003;DHT22;16102;57.138;-2.118;2023-03-14T08:41:27;1.50;1.00
29003;DHT22;16102;57.138;-2.118;2023-03-14T08:43:54;1.60;1.00
29003;DHT22;16102;57.138;-2.118;2023-03-14T08:46:21;1.60;1.00
29003;DHT22;16102;57.138;-2.118;2023-03-14T08:48:48;1.60;1.00
29003;DHT22;16102;57.138;-2.118;2023-03-14T08:51:15;1.70;1.00
29003;DHT22;16102;57.138;-2.118;2023-03-14T08:53:42;1.70;1.00
29003;DHT22;16102;57.138;-2.118;2023-03-14T08:56:09;1.80;1.00
29003;DHT22;16102;57.138;-2.118;2023-03-14T08:58:37;1.80;1.00
29003;DHT22;16102;57.138;-2.118;2023-03-14T09:01:09;1.90;1.00
29003;DHT22;16102;57.138;-2.118;2023-03-14T09:03:37;1.90;1.00
29003;DHT22;16102;57.138;-2.118;2023-03-14T09:06:07;2.00;1.00
29003;DHT22;16102;57.138;-2.118;2023-03-14T09:08:34;2.00;1.00
29003;DHT22;16102;57.138;-2.118;2023-03-14T09:11:07;2.10;1.00
29003;DHT22;16102;57.138;-2.118;2023-03-14T09:13:35;2.20;1.00
29003;DHT22;16102;57.138;-2.118;2023-03-14T09:16:03;2.20;1.00
29003;DHT22;16102;57.138;-2.118;2023-03-14T09:18:30;2.40;1.00
29003;DHT22;16102;57.138;-2.118;2023-03-14T09:20:57;2.40;1.00
29003;DHT22;16102;57.138;-2.118;2023-03-14T09:23:24;2.50;1.00
29003;DHT22;16102;57.138;-2.118;2023-03-14T09:25:55;2.50;1.00
29003;DHT22;16102;57.138;-2.118;2023-03-14T09:28:22;2.50;1.00
29003;DHT22;16102;57.138;-2.118;2023-03-14T09:30:50;2.60;1.00
29003;DHT22;16102;57.138;-2.118;2023-03-14T09:33:17;2.50;1.00
29003;DHT22;16102;57.138;-2.118;2023-03-14T09:35:44;2.60;1.00
29003;DHT22;16102;57.138;-2.118;2023-03-14T09:38:11;2.60;1.00
29003;DHT22;16102;57.138;-2.118;2023-03-14T09:40:40;2.70;1.00
29003;DHT22;16102;57.138;-2.118;2023-03-14T09:43:14;2.80;1.00
29003;DHT22;16102;57.138;-2.118;2023-03-14T09:45:42;1.90;1.00
29003;DHT22;16102;57.138;-2.118;2023-03-14T09:48:16;1.60;68.90
29003;DHT22;16102;57.138;-2.118;2023-03-14T09:50:48;1.60;67.50
29003;DHT22;16102;57.138;-2.118;2023-03-14T09:53:35;1.60;99.90
29003;DHT22;16102;57.138;-2.118;2023-03-14T09:56:03;1.70;99.90
29003;DHT22;16102;57.138;-2.118;2023-03-14T09:58:31;1.50;99.90
29003;DHT22;16102;57.138;-2.118;2023-03-14T10:00:59;1.40;99.90
29003;DHT22;16102;57.138;-2.118;2023-03-14T10:03:33;1.30;99.90
29003;DHT22;16102;57.138;-2.118;2023-03-14T10:06:00;1.30;99.90
29003;DHT22;16102;57.138;-2.118;2023-03-14T10:08:27;1.50;47.80
29003;DHT22;16102;57.138;-2.118;2023-03-14T10:10:54;1.60;99.90
29003;DHT22;16102;57.138;-2.118;2023-03-14T10:13:27;1.50;99.90
29003;DHT22;16102;57.138;-2.118;2023-03-14T10:15:59;1.40;99.90
29003;DHT22;16102;57.138;-2.118;2023-03-14T10:18:30;1.50;99.90
29003;DHT22;16102;57.138;-2.118;2023-03-14T10:21:06;1.40;99.90
29003;DHT22;16102;57.138;-2.118;2023-03-14T10:23:34;1.70;99.90
29003;DHT22;16102;57.138;-2.118;2023-03-14T10:26:27;1.80;99.90
29003;DHT22;16102;57.138;-2.118;2023-03-14T10:29:09;1.90;99.90
29003;DHT22;16102;57.138;-2.118;2023-03-14T10:32:06;2.10;99.90
29003;DHT22;16102;57.138;-2.118;2023-03-14T10:34:38;2.10;99.90
29003;DHT22;16102;57.138;-2.118;2023-03-14T10:37:23;2.40;99.90
29003;DHT22;16102;57.138;-2.118;2023-03-14T10:39:54;2.50;99.90
29003;DHT22;16102;57.138;-2.118;2023-03-14T10:42:29;2.70;99.90
29003;DHT22;16102;57.138;-2.118;2023-03-14T10:45:04;2.70;99.90
29003;DHT22;16102;57.138;-2.118;2023-03-14T10:47:33;3.00;99.90
29003;DHT22;16102;57.138;-2.118;2023-03-14T10:50:24;3.10;99.90
29003;DHT22;16102;57.138;-2.118;2023-03-14T10:52:53;3.20;72.20
29003;DHT22;16102;57.138;-2.118;2023-03-14T10:55:42;3.30;37.50
29003;DHT22;16102;57.138;-2.118;2023-03-14T10:58:23;3.40;5.40
29003;DHT22;16102;57.138;-2.118;2023-03-14T11:03:38;3.80;1.00
29003;DHT22;16102;57.138;-2.118;2023-03-14T11:06:14;4.00;1.00
29003;DHT22;16102;57.138;-2.118;2023-03-14T11:11:27;4.50;1.00
29003;DHT22;16102;57.138;-2.118;2023-03-14T11:16:56;4.60;1.00
29003;DHT22;16102;57.138;-2.118;2023-03-14T11:22:53;4.80;1.00
29003;DHT22;16102;57.138;-2.118;2023-03-14T11:25:32;4.90;1.00
29003;DHT22;16102;57.138;-2.118;2023-03-14T11:28:37;5.00;1.00
29003;DHT22;16102;57.138;-2.118;2023-03-14T11:31:20;5.30;1.00
29003;DHT22;16102;57.138;-2.118;2023-03-14T11:38:58;5.80;1.00
29003;DHT22;16102;57.138;-2.118;2023-03-14T11:41:30;5.70;1.00
29003;DHT22;16102;57.138;-2.118;2023-03-14T11:44:03;5.80;1.00
29003;DHT22;16102;57.138;-2.118;2023-03-14T11:46:38;6.10;1.00
29003;DHT22;16102;57.138;-2.118;2023-03-14T11:52:00;6.20;1.00
29003;DHT22;16102;57.138;-2.118;2023-03-14T11:57:05;7.00;1.00
29003;DHT22;16102;57.138;-2.118;2023-03-14T12:10:49;7.50;1.00
29003;DHT22;16102;57.138;-2.118;2023-03-14T12:13:17;7.30;99.90
29003;DHT22;16102;57.138;-2.118;2023-03-14T12:15:56;6.80;99.90
29003;DHT22;16102;57.138;-2.118;2023-03-14T12:18:31;7.00;99.90
29003;DHT22;16102;57.138;-2.118;2023-03-14T12:21:11;8.00;99.90
29003;DHT22;16102;57.138;-2.118;2023-03-14T12:26:13;9.20;99.90
29003;DHT22;16102;57.138;-2.118;2023-03-14T12:28:44;9.60;99.90
29003;DHT22;16102;57.138;-2.118;2023-03-14T12:31:48;9.60;99.90
29003;DHT22;16102;57.138;-2.118;2023-03-14T12:42:12;9.70;99.90
29003;DHT22;16102;57.138;-2.118;2023-03-14T12:44:44;10.40;99.90
29003;DHT22;16102;57.138;-2.118;2023-03-14T12:49:50;10.00;99.90
29003;DHT22;16102;57.138;-2.118;2023-03-14T12:52:44;9.80;99.90
29003;DHT22;16102;57.138;-2.118;2023-03-14T12:55:24;8.80;99.90
29003;DHT22;16102;57.138;-2.118;2023-03-14T12:58:13;8.10;99.90
29003;DHT22;16102;57.138;-2.118;2023-03-14T13:00:42;7.60;99.90
29003;DHT22;16102;57.138;-2.118;2023-03-14T13:03:19;7.90;99.90
29003;DHT22;16102;57.138;-2.118;2023-03-14T13:06:00;7.80;99.90
29003;DHT22;16102;57.138;-2.118;2023-03-14T13:08:43;7.50;99.90
29003;DHT22;16102;57.138;-2.118;2023-03-14T13:11:19;7.60;99.90
29003;DHT22;16102;57.138;-2.118;2023-03-14T13:13:55;6.90;99.90
29003;DHT22;16102;57.138;-2.118;2023-03-14T13:16:23;6.50;99.90
29003;DHT22;16102;57.138;-2.118;2023-03-14T13:19:32;6.40;99.90
29003;DHT22;16102;57.138;-2.118;2023-03-14T13:21:59;6.90;99.90
29003;DHT22;16102;57.138;-2.118;2023-03-14T13:24:28;6.70;99.90
29003;DHT22;16102;57.138;-2.118;2023-03-14T13:26:57;6.80;99.90
29003;DHT22;16102;57.138;-2.118;2023-03-14T13:29:29;7.20;99.90
29003;DHT22;16102;57.138;-2.118;2023-03-14T13:32:02;7.80;99.90
29003;DHT22;16102;57.138;-2.118;2023-03-14T13:34:31;7.90;99.90
29003;DHT22;16102;57.138;-2.118;2023-03-14T13:36:59;6.90;99.90
29003;DHT22;16102;57.138;-2.118;2023-03-14T13:39:28;7.60;99.90
29003;DHT22;16102;57.138;-2.118;2023-03-14T13:42:00;9.30;99.90
29003;DHT22;16102;57.138;-2.118;2023-03-14T13:44:38;9.80;99.90
29003;DHT22;16102;57.138;-2.118;2023-03-14T13:47:13;11.00;99.90
29003;DHT22;16102;57.138;-2.118;2023-03-14T13:49:41;11.50;99.90
29003;DHT22;16102;57.138;-2.118;2023-03-14T13:52:30;11.00;99.90
29003;DHT22;16102;57.138;-2.118;2023-03-14T13:54:59;12.40;99.90
29003;DHT22;16102;57.138;-2.118;2023-03-14T13:57:28;11.40;99.90
29003;DHT22;16102;57.138;-2.118;2023-03-14T14:02:47;12.80;99.90
29003;DHT22;16102;57.138;-2.118;2023-03-14T14:05:15;11.80;99.90
29003;DHT22;16102;57.138;-2.118;2023-03-14T14:07:44;10.80;99.90
29003;DHT22;16102;57.138;-2.118;2023-03-14T14:10:13;10.80;99.90
29003;DHT22;16102;57.138;-2.118;2023-03-14T14:12:45;11.70;99.90
29003;DHT22;16102;57.138;-2.118;2023-03-14T14:17:54;15.40;99.90
29003;DHT22;16102;57.138;-2.118;2023-03-14T14:22:50;14.00;99.90
29003;DHT22;16102;57.138;-2.118;2023-03-14T14:25:20;13.20;99.90
29003;DHT22;16102;57.138;-2.118;2023-03-14T14:27:49;13.70;99.90
29003;DHT22;16102;57.138;-2.118;2023-03-14T14:32:45;11.50;99.90
29003;DHT22;16102;57.138;-2.118;2023-03-14T14:35:33;12.10;99.90
29003;DHT22;16102;57.138;-2.118;2023-03-14T14:38:01;13.20;99.90
29003;DHT22;16102;57.138;-2.118;2023-03-14T14:40:30;13.90;99.90
29003;DHT22;16102;57.138;-2.118;2023-03-14T14:43:04;12.40;99.90
29003;DHT22;16102;57.138;-2.118;2023-03-14T14:45:34;12.20;99.90
29003;DHT22;16102;57.138;-2.118;2023-03-14T14:50:38;10.70;99.90
29003;DHT22;16102;57.138;-2.118;2023-03-14T14:53:29;9.70;99.90
29003;DHT22;16102;57.138;-2.118;2023-03-14T14:56:04;8.30;99.90
29003;DHT22;16102;57.138;-2.118;2023-03-14T14:58:40;7.20;99.90
29003;DHT22;16102;57.138;-2.118;2023-03-14T15:01:17;6.40;99.90
29003;DHT22;16102;57.138;-2.118;2023-03-14T15:03:47;6.30;1.00
29003;DHT22;16102;57.138;-2.118;2023-03-14T15:06:15;6.90;1.00
29003;DHT22;16102;57.138;-2.118;2023-03-14T15:08:44;8.60;99.90
29003;DHT22;16102;57.138;-2.118;2023-03-14T15:11:30;8.90;99.90
29003;DHT22;16102;57.138;-2.118;2023-03-14T15:13:57;8.30;99.90
29003;DHT22;16102;57.138;-2.118;2023-03-14T15:16:28;6.90;99.90
29003;DHT22;16102;57.138;-2.118;2023-03-14T15:18:58;5.60;1.00
29003;DHT22;16102;57.138;-2.118;2023-03-14T15:21:27;4.80;1.00
29003;DHT22;16102;57.138;-2.118;2023-03-14T15:23:54;4.40;1.00
29003;DHT22;16102;57.138;-2.118;2023-03-14T15:26:25;4.20;1.00
29003;DHT22;16102;57.138;-2.118;2023-03-14T15:28:52;4.20;1.00
29003;DHT22;16102;57.138;-2.118;2023-03-14T15:31:20;4.50;1.00
29003;DHT22;16102;57.138;-2.118;2023-03-14T15:33:50;5.20;1.00
29003;DHT22;16102;57.138;-2.118;2023-03-14T15:36:21;6.10;1.00
29003;DHT22;16102;57.138;-2.118;2023-03-14T15:38:51;7.20;1.00
29003;DHT22;16102;57.138;-2.118;2023-03-14T15:41:19;7.40;1.00
29003;DHT22;16102;57.138;-2.118;2023-03-14T15:43:47;7.80;1.00
29003;DHT22;16102;57.138;-2.118;2023-03-14T15:46:15;8.70;1.00
29003;DHT22;16102;57.138;-2.118;2023-03-14T15:48:45;9.20;1.00
29003;DHT22;16102;57.138;-2.118;2023-03-14T15:51:12;9.40;99.90
29003;DHT22;16102;57.138;-2.118;2023-03-14T15:53:40;10.10;1.00
29003;DHT22;16102;57.138;-2.118;2023-03-14T15:56:11;10.70;1.00
29003;DHT22;16102;57.138;-2.118;2023-03-14T15:58:39;11.60;99.90
29003;DHT22;16102;57.138;-2.118;2023-03-14T16:01:08;12.00;99.90
29003;DHT22;16102;57.138;-2.118;2023-03-14T16:03:38;11.80;99.90
29003;DHT22;16102;57.138;-2.118;2023-03-14T16:06:06;11.80;99.90
29003;DHT22;16102;57.138;-2.118;2023-03-14T16:08:33;11.50;99.90
29003;DHT22;16102;57.138;-2.118;2023-03-14T16:11:00;11.20;99.90
29003;DHT22;16102;57.138;-2.118;2023-03-14T16:13:27;11.10;99.90
29003;DHT22;16102;57.138;-2.118;2023-03-14T16:15:57;10.20;99.90
29003;DHT22;16102;57.138;-2.118;2023-03-14T16:18:28;10.80;99.90
29003;DHT22;16102;57.138;-2.118;2023-03-14T16:21:00;10.60;99.90
29003;DHT22;16102;57.138;-2.118;2023-03-14T16:23:28;11.20;99.90
29003;DHT22;16102;57.138;-2.118;2023-03-14T16:25:56;10.80;99.90
29003;DHT22;16102;57.138;-2.118;2023-03-14T16:28:24;11.70;99.90
29003;DHT22;16102;57.138;-2.118;2023-03-14T16:30:52;11.90;99.90
29003;DHT22;16102;57.138;-2.118;2023-03-14T16:33:19;11.40;99.90
29003;DHT22;16102;57.138;-2.118;2023-03-14T16:36:00;11.40;99.90
29003;DHT22;16102;57.138;-2.118;2023-03-14T16:38:27;10.90;99.90
29003;DHT22;16102;57.138;-2.118;2023-03-14T16:41:11;10.20;99.90
29003;DHT22;16102;57.138;-2.118;2023-03-14T16:43:39;9.50;99.90
29003;DHT22;16102;57.138;-2.118;2023-03-14T16:46:10;9.70;99.90
29003;DHT22;16102;57.138;-2.118;2023-03-14T16:48:37;10.10;99.90
29003;DHT22;16102;57.138;-2.118;2023-03-14T16:51:05;9.70;99.90
29003;DHT22;16102;57.138;-2.118;2023-03-14T16:53:32;9.50;99.90
29003;DHT22;16102;57.138;-2.118;2023-03-14T16:55:59;9.80;99.90
29003;DHT22;16102;57.138;-2.118;2023-03-14T16:58:27;9.20;99.90
29003;DHT22;16102;57.138;-2.118;2023-03-14T17:00:57;8.70;99.90
29003;DHT22;16102;57.138;-2.118;2023-03-14T17:03:24;8.40;99.90
29003;DHT22;16102;57.138;-2.118;2023-03-14T17:05:54;7.90;99.90